Time;durP1;ratioP1;P1;durP2;ratioP2;P2;SDS_P1;SDS_P2;PMS_P1;PMS_P2;Temp;Humidity;BMP_temperature;BMP_pressure;BME280_temperature;BME280_humidity;BME280_pressure;Samples;Min_cycle;Max_cycle;Signal;HPM_P1;HPM_P2
2022/07/05 00:01:15;;;;;;;3.77;2.50;;;;;;;16.05;60.67;101172.27;1699197;82;21737;-80
2022/07/05 00:03:41;;;;;;;3.33;2.23;;;;;;;16.03;60.77;101172.75;1687535;83;21525;-80
2022/07/05 00:06:07;;;;;;;5.67;2.57;;;;;;;15.97;60.84;101167.27;1689817;83;21051;-80
2022/07/05 00:08:46;;;;;;;3.42;2.10;;;;;;;15.98;60.96;101168.98;1667671;83;21038;-80
2022/07/05 00:11:11;;;;;;;2.23;2.03;;;;;;;15.95;61.00;101164.30;1653876;84;21018;-80
2022/07/05 00:13:37;;;;;;;3.53;2.40;;;;;;;15.94;61.07;101162.59;1683019;84;21691;-80
2022/07/05 00:16:04;;;;;;;1.70;1.60;;;;;;;15.97;61.12;101163.80;1667529;84;20895;-80
2022/07/05 00:18:30;;;;;;;4.22;2.42;;;;;;;15.92;61.15;101154.81;1667412;85;21065;-80
2022/07/05 00:20:56;;;;;;;4.77;2.73;;;;;;;15.89;61.21;101154.90;1679025;84;21045;-80
2022/07/05 00:23:22;;;;;;;3.20;2.70;;;;;;;15.82;61.26;101154.67;1667711;84;21052;-80
2022/07/05 00:25:49;;;;;;;2.93;2.63;;;;;;;15.76;61.36;101153.55;1667841;84;21092;-80
2022/07/05 00:28:15;;;;;;;3.40;2.50;;;;;;;15.73;61.49;101158.39;1667181;84;21813;-80
2022/07/05 00:30:41;;;;;;;4.07;2.43;;;;;;;15.75;61.53;101167.03;1679664;84;21109;-80
2022/07/05 00:33:08;;;;;;;4.45;2.10;;;;;;;15.73;61.54;101162.75;1667277;85;27898;-80
2022/07/05 00:35:34;;;;;;;2.33;2.03;;;;;;;15.66;61.57;101161.22;1679798;84;21081;-80
2022/07/05 00:38:00;;;;;;;6.97;1.90;;;;;;;15.59;61.59;101160.56;1667564;84;21066;-80
2022/07/05 00:40:26;;;;;;;3.33;1.70;;;;;;;15.54;61.67;101163.72;1667215;86;21101;-80
2022/07/05 00:42:53;;;;;;;2.42;1.90;;;;;;;15.47;61.52;101167.39;1688581;84;21049;-80
2022/07/05 00:45:19;;;;;;;1.87;1.70;;;;;;;15.39;61.76;101163.68;1668271;84;20887;-80
2022/07/05 00:47:45;;;;;;;5.80;2.50;;;;;;;15.36;61.81;101166.38;1667298;85;21062;-80
2022/07/05 00:50:30;;;;;;;2.40;2.20;;;;;;;15.28;61.84;101170.93;1655769;84;21527;-80
2022/07/05 00:52:58;;;;;;;;;;;;;;;15.21;62.01;101155.05;1682739;83;21379;-80
2022/07/05 00:55:24;;;;;;;2.33;2.12;;;;;;;15.19;62.54;101150.33;1677338;84;20185;-80
2022/07/05 00:58:01;;;;;;;2.40;2.20;;;;;;;15.18;62.19;101153.38;1667510;84;21109;-80
2022/07/05 01:00:27;;;;;;;2.65;1.90;;;;;;;15.18;62.21;101155.98;1670020;84;21770;-80
2022/07/05 01:02:53;;;;;;;1.80;1.65;;;;;;;15.16;62.25;101156.47;1671144;83;21062;-80
2022/07/05 01:05:20;;;;;;;1.52;1.42;;;;;;;15.11;62.29;101158.79;1668060;84;21041;-80
2022/07/05 01:07:46;;;;;;;2.10;1.42;;;;;;;15.08;62.25;101163.63;1669658;84;21082;-80
2022/07/05 01:10:12;;;;;;;4.10;2.23;;;;;;;14.99;62.28;101159.98;1695785;83;21110;-80
2022/07/05 01:12:40;;;;;;;1.97;1.70;;;;;;;14.92;62.43;101162.34;1689285;83;20942;-80
2022/07/05 01:15:08;;;;;;;2.10;1.90;;;;;;;14.90;62.49;101166.28;1668756;84;20930;-80
2022/07/05 01:17:39;;;;;;;1.87;1.52;;;;;;;14.88;62.50;101165.47;1675548;84;20915;-80
2022/07/05 01:20:07;;;;;;;1.92;1.60;;;;;;;14.81;62.56;101166.51;1668352;86;20968;-80
2022/07/05 01:22:56;;;;;;;1.60;1.50;;;;;;;14.78;62.69;101167.89;1668175;84;21443;-80
2022/07/05 01:25:22;;;;;;;1.85;1.70;;;;;;;14.79;62.76;101168.30;1688106;83;443103;-80
2022/07/05 01:27:49;;;;;;;1.92;1.72;;;;;;;14.79;62.80;101166.14;1677343;85;20892;-80
2022/07/05 01:30:16;;;;;;;2.65;2.00;;;;;;;14.78;62.81;101170.48;1663081;84;20960;-80
2022/07/05 01:32:42;;;;;;;4.67;2.50;;;;;;;14.75;62.83;101174.47;1673997;85;27307;-80
2022/07/05 01:35:10;;;;;;;4.23;2.60;;;;;;;14.71;62.90;101169.37;1672921;85;21130;-80
2022/07/05 01:37:38;;;;;;;4.62;2.40;;;;;;;14.66;62.97;101173.83;1662981;84;21538;-80
2022/07/05 01:40:05;;;;;;;;;;;;;;;14.65;63.13;101178.18;1657174;85;21090;-80
2022/07/05 01:42:31;;;;;;;4.85;2.50;;;;;;;14.68;63.64;101171.59;1667214;85;20180;-80
2022/07/05 01:45:04;;;;;;;2.92;2.62;;;;;;;14.66;63.23;101172.08;1640657;87;21113;-80
2022/07/05 01:47:40;;;;;;;2.40;2.20;;;;;;;14.66;63.26;101167.32;1639634;86;21082;-80
2022/07/05 01:50:15;;;;;;;2.87;2.50;;;;;;;14.67;63.34;101162.08;1633414;86;21059;-80
2022/07/05 01:52:44;;;;;;;3.37;2.08;;;;;;;14.70;63.39;101158.10;1646482;87;20908;-80
2022/07/05 01:55:10;;;;;;;2.50;2.35;;;;;;;14.69;63.43;101157.70;1646255;85;21534;-80
2022/07/05 01:57:36;;;;;;;3.37;2.80;;;;;;;14.68;63.47;101158.59;1662773;85;21063;-80
2022/07/05 02:00:03;;;;;;;3.43;2.37;;;;;;;14.67;63.53;101156.88;1644431;87;20930;-80
2022/07/05 02:02:28;;;;;;;;;;;;;;;14.67;63.59;101154.72;1669076;86;21138;-80
2022/07/05 02:04:54;;;;;;;2.87;2.67;;;;;;;14.68;64.10;101162.49;1657907;85;20787;-80
2022/07/05 02:07:21;;;;;;;2.67;2.47;;;;;;;14.68;63.68;101172.91;1652727;85;20995;-80
2022/07/05 02:09:47;;;;;;;3.02;2.67;;;;;;;14.68;63.71;101174.20;1645776;85;21067;-80
2022/07/05 02:12:13;;;;;;;5.87;2.80;;;;;;;14.68;63.83;101175.50;1664333;83;21083;-80
2022/07/05 02:14:39;;;;;;;2.50;2.27;;;;;;;14.70;63.93;101177.62;1666656;84;21656;-80
2022/07/05 02:17:05;;;;;;;2.50;2.20;;;;;;;14.71;63.91;101176.73;1645696;85;21067;-80
2022/07/05 02:19:31;;;;;;;3.07;2.20;;;;;;;14.66;63.86;101170.78;1645420;86;21668;-80
2022/07/05 02:21:57;;;;;;;4.67;2.37;;;;;;;14.64;63.96;101170.41;1646236;85;20940;-80
2022/07/05 02:24:23;;;;;;;2.80;2.60;;;;;;;14.60;64.01;101167.02;1649437;85;20893;-80
2022/07/05 02:26:56;;;;;;;2.42;2.22;;;;;;;14.60;64.07;101177.44;1645113;87;21068;-80
2022/07/05 02:29:22;;;;;;;3.92;2.40;;;;;;;14.60;64.17;101180.03;1645682;87;21079;-80
2022/07/05 02:31:48;;;;;;;2.45;2.25;;;;;;;14.60;64.24;101171.38;1648117;85;21055;-80
2022/07/05 02:34:15;;;;;;;2.95;2.52;;;;;;;14.59;64.33;101171.81;1645244;85;20991;-80
2022/07/05 02:36:41;;;;;;;2.63;2.30;;;;;;;14.60;64.40;101164.87;1645521;87;21046;-80
2022/07/05 02:39:07;;;;;;;2.17;2.00;;;;;;;14.62;64.42;101160.48;1657576;85;21067;-80
2022/07/05 02:41:34;;;;;;;2.20;2.00;;;;;;;14.63;64.38;101160.45;1653202;85;21032;-80
2022/07/05 02:43:59;;;;;;;2.00;1.90;;;;;;;14.60;64.35;101160.52;1642873;87;21105;-80
2022/07/05 02:46:25;;;;;;;3.00;2.70;;;;;;;14.55;64.41;101157.20;1665443;86;20925;-81
2022/07/05 02:48:52;;;;;;;2.80;2.10;;;;;;;14.49;64.48;101156.89;1639597;86;20952;-81
2022/07/05 02:51:18;;;;;;;4.70;2.02;;;;;;;14.47;64.56;101162.58;1639852;86;25001;-81
2022/07/05 02:53:45;;;;;;;2.40;1.90;;;;;;;14.47;64.66;101166.48;1647497;86;21067;-81
2022/07/05 02:56:11;;;;;;;2.70;2.00;;;;;;;14.47;64.70;101166.93;1639038;86;21090;-81
2022/07/05 02:58:38;;;;;;;2.30;1.87;;;;;;;14.48;64.71;101166.89;1640269;87;21075;-81
2022/07/05 03:01:04;;;;;;;;;;;;;;;14.47;64.69;101170.39;1643608;86;21127;-80
2022/07/05 03:03:30;;;;;;;2.00;1.90;;;;;;;14.43;65.04;101171.80;1624434;87;20156;-80
2022/07/05 03:05:56;;;;;;;3.67;2.42;;;;;;;14.40;64.79;101174.44;1639442;87;20976;-80
2022/07/05 03:08:22;;;;;;;2.37;2.17;;;;;;;14.43;64.90;101173.95;1640182;87;20912;-80
2022/07/05 03:10:48;;;;;;;3.07;2.40;;;;;;;14.47;64.95;101165.19;1648354;86;20921;-80
2022/07/05 03:13:14;;;;;;;2.47;2.27;;;;;;;14.47;64.90;101165.63;1667799;85;21067;-80
2022/07/05 03:15:41;;;;;;;3.47;2.67;;;;;;;14.46;65.00;101164.77;1672936;84;20952;-80
2022/07/05 03:18:07;;;;;;;3.52;2.67;;;;;;;14.48;65.07;101164.30;1667653;85;21503;-80
2022/07/05 03:20:34;;;;;;;;;;;;;;;14.57;65.16;101172.30;1648137;85;21539;-81
2022/07/05 03:23:00;;;;;;;2.77;2.57;;;;;;;14.62;65.59;101178.70;1617425;87;20282;-81
2022/07/05 03:25:26;;;;;;;3.00;2.63;;;;;;;14.66;65.18;101179.89;1640806;86;21559;-81
2022/07/05 03:27:53;;;;;;;3.17;2.52;;;;;;;14.70;65.21;101182.83;1665547;86;21480;-81
2022/07/05 03:30:19;;;;;;;2.53;2.33;;;;;;;14.72;65.26;101179.75;1664326;86;20924;-81
2022/07/05 03:32:45;;;;;;;2.50;2.30;;;;;;;14.78;65.36;101186.55;1640222;86;20936;-81
2022/07/05 03:35:11;;;;;;;2.30;2.10;;;;;;;14.82;65.35;101184.28;1640025;87;21551;-81
2022/07/05 03:37:37;;;;;;;2.95;2.65;;;;;;;14.84;65.37;101188.56;1639398;87;21066;-81
2022/07/05 03:40:05;;;;;;;4.00;2.42;;;;;;;14.84;65.40;101187.27;1648534;86;21095;-81
2022/07/05 03:42:32;;;;;;;2.87;2.52;;;;;;;14.83;65.48;101191.20;1662535;86;21406;-81
2022/07/05 03:44:58;;;;;;;3.25;2.33;;;;;;;14.86;65.59;101193.29;1667165;85;21055;-81
2022/07/05 03:47:24;;;;;;;2.60;2.40;;;;;;;14.87;65.62;101195.45;1663387;85;20972;-81
2022/07/05 03:49:49;;;;;;;3.20;2.58;;;;;;;14.92;65.72;101188.83;1640080;86;21687;-81
2022/07/05 03:52:15;;;;;;;4.53;2.97;;;;;;;14.98;65.77;101188.23;1639985;87;21701;-81
2022/07/05 03:54:44;;;;;;;2.52;2.33;;;;;;;15.06;65.80;101186.73;1639386;87;21540;-81
2022/07/05 03:57:11;;;;;;;;;;;;;;;15.12;65.82;101182.64;1649409;86;21542;-81
2022/07/05 03:59:37;;;;;;;2.50;2.30;;;;;;;15.16;66.32;101182.52;1666387;85;20250;-81
2022/07/05 04:02:11;;;;;;;3.47;2.22;;;;;;;15.22;65.95;101191.48;1650365;85;21571;-81
2022/07/05 04:04:38;;;;;;;2.77;2.10;;;;;;;15.29;66.00;101186.12;1654623;85;21200;-81
2022/07/05 04:07:04;;;;;;;4.50;2.50;;;;;;;15.37;66.03;101185.47;1673639;84;21423;-81
2022/07/05 04:09:34;;;;;;;2.65;2.42;;;;;;;15.41;66.04;101185.34;1672705;85;21526;-81
2022/07/05 04:12:00;;;;;;;2.43;2.23;;;;;;;15.47;66.08;101185.18;1663164;83;21472;-81
2022/07/05 04:14:26;;;;;;;2.42;2.15;;;;;;;15.55;66.13;101179.77;1672837;85;21445;-81
2022/07/05 04:16:52;;;;;;;3.67;2.27;;;;;;;15.63;66.20;101187.38;1648585;85;21824;-81
2022/07/05 04:19:18;;;;;;;3.67;2.43;;;;;;;15.67;66.16;101179.42;1678089;84;21702;-81
2022/07/05 04:21:44;;;;;;;3.93;2.90;;;;;;;15.67;66.16;101179.42;1684525;84;21499;-81
2022/07/05 04:24:10;;;;;;;3.22;3.00;;;;;;;15.87;66.36;101195.36;1638517;86;21192;-81
2022/07/05 04:26:36;;;;;;;3.35;3.05;;;;;;;15.98;66.43;101199.42;1645435;85;21090;-81
2022/07/05 04:29:04;;;;;;;3.50;2.65;;;;;;;16.09;66.42;101206.48;1660914;85;21745;-81
2022/07/05 04:31:30;;;;;;;3.50;3.10;;;;;;;16.17;66.47;101206.64;1663733;85;20987;-81
2022/07/05 04:33:56;;;;;;;8.23;6.22;;;;;;;16.27;66.52;101208.52;1646327;85;21928;-81
2022/07/05 04:36:22;;;;;;;4.73;4.23;;;;;;;16.36;66.52;101210.86;1645582;87;21507;-81
2022/07/05 04:38:48;;;;;;;7.00;4.37;;;;;;;16.46;66.61;101207.52;1645484;87;21046;-81
2022/07/05 04:41:14;;;;;;;8.20;4.75;;;;;;;16.58;66.70;101212.81;1651439;85;21543;-81
2022/07/05 04:43:40;;;;;;;8.73;5.10;;;;;;;16.67;66.75;101211.22;1645741;85;21003;-81
2022/07/05 04:46:06;;;;;;;4.97;4.47;;;;;;;16.77;66.78;101208.72;1645642;87;21002;-81
2022/07/05 04:48:33;;;;;;;5.70;4.55;;;;;;;16.88;66.83;101210.09;1645266;86;21066;-82
2022/07/05 04:50:59;;;;;;;5.90;5.30;;;;;;;17.01;66.86;101219.69;1652314;85;21690;-82
2022/07/05 04:53:25;;;;;;;6.62;4.45;;;;;;;17.14;66.89;101224.91;1676065;83;20995;-82
2022/07/05 04:55:51;;;;;;;4.80;4.40;;;;;;;17.28;66.93;101222.26;1653349;84;21676;-82
2022/07/05 04:58:17;;;;;;;9.83;4.37;;;;;;;17.40;66.92;101220.08;1651099;85;20912;-82
2022/07/05 05:00:43;;;;;;;7.97;4.67;;;;;;;17.52;67.04;101224.03;1672904;85;21508;-82
2022/07/05 05:03:21;;;;;;;4.62;4.00;;;;;;;17.64;67.09;101226.22;1672821;84;21551;-82
2022/07/05 05:05:47;;;;;;;4.50;4.10;;;;;;;17.82;67.10;101233.41;1671381;85;21623;-82
2022/07/05 05:08:13;;;;;;;5.25;4.08;;;;;;;18.00;67.19;101229.73;1673625;84;21074;-82
2022/07/05 05:10:39;;;;;;;7.33;4.20;;;;;;;18.26;67.29;101231.34;1653133;85;21484;-82
2022/07/05 05:13:05;;;;;;;8.07;4.20;;;;;;;18.61;67.33;101233.50;1652144;85;20936;-82
2022/07/05 05:15:31;;;;;;;6.45;4.05;;;;;;;19.03;67.29;101240.06;1672867;85;21622;-82
2022/07/05 05:18:05;;;;;;;4.60;3.90;;;;;;;19.47;67.28;101237.33;1660993;85;21062;-82
2022/07/05 05:20:31;;;;;;;5.55;4.10;;;;;;;19.96;67.26;101235.18;1645098;85;22522;-82
2022/07/05 05:22:57;;;;;;;7.10;4.07;;;;;;;20.71;67.16;101215.47;1645491;85;21051;-82
2022/07/05 05:25:23;;;;;;;6.40;3.67;;;;;;;20.71;67.16;101215.47;1648183;85;23078;-82
2022/07/05 05:27:50;;;;;;;6.60;3.70;;;;;;;21.23;66.90;101233.47;1673459;84;21071;-82
2022/07/05 05:30:22;;;;;;;4.12;3.25;;;;;;;21.66;66.90;101232.09;1672251;85;20975;-82
2022/07/05 05:32:48;;;;;;;4.07;3.30;;;;;;;22.25;66.86;101230.69;1670873;85;21067;-83
2022/07/05 05:35:16;;;;;;;4.70;3.13;;;;;;;22.73;66.61;101233.67;1651248;85;22194;-83
2022/07/05 05:37:52;;;;;;;9.53;3.80;;;;;;;23.18;66.44;101237.25;1664973;85;21091;-83
2022/07/05 05:40:19;;;;;;;3.40;3.00;;;;;;;23.58;66.21;101238.84;1661229;85;20894;-83
2022/07/05 05:42:45;;;;;;;4.47;2.87;;;;;;;23.83;65.97;101228.96;1674606;83;20908;-83
2022/07/05 05:45:11;;;;;;;4.73;2.93;;;;;;;24.06;65.90;101236.28;1677513;84;20956;-83
2022/07/05 05:47:51;;;;;;;5.97;3.02;;;;;;;24.35;65.75;101236.66;1653963;85;21004;-83
2022/07/05 05:50:24;;;;;;;4.67;2.58;;;;;;;24.64;65.58;101239.20;1668237;85;20987;-83
2022/07/05 05:52:51;;;;;;;5.78;2.40;;;;;;;24.91;65.30;101239.20;1656169;85;20924;-83
2022/07/05 05:55:18;;;;;;;4.65;2.30;;;;;;;25.11;65.02;101235.23;1646836;86;20975;-83
2022/07/05 05:57:45;;;;;;;4.90;1.98;;;;;;;25.42;65.00;101241.48;1646149;86;21132;-83
2022/07/05 06:00:12;;;;;;;5.75;2.35;;;;;;;25.78;64.80;101239.91;1646266;85;21139;-83
2022/07/05 06:02:39;;;;;;;5.05;2.25;;;;;;;26.11;64.47;101246.80;1688003;83;21114;-83
2022/07/05 06:05:08;;;;;;;3.15;1.95;;;;;;;26.44;64.01;101248.02;1671303;83;21063;-83
2022/07/05 06:07:56;;;;;;;2.58;1.77;;;;;;;26.70;63.83;101250.92;1671353;85;21150;-83
2022/07/05 06:10:31;;;;;;;5.28;2.22;;;;;;;26.97;63.66;101254.23;1662783;85;21102;-83
2022/07/05 06:13:00;;;;;;;2.95;1.85;;;;;;;27.30;63.29;101258.78;1674684;83;20963;-83
2022/07/05 06:15:28;;;;;;;2.55;1.85;;;;;;;27.67;62.97;101254.64;1671401;82;20956;-83
2022/07/05 06:17:56;;;;;;;7.25;1.50;;;;;;;28.05;62.48;101256.95;1646487;85;21006;-83
2022/07/05 06:20:26;;;;;;;3.83;1.52;;;;;;;28.34;62.18;101256.81;1645313;86;21134;-83
2022/07/05 06:22:53;;;;;;;1.72;1.30;;;;;;;28.77;61.83;101257.78;1648035;85;21026;-84
2022/07/05 06:25:33;;;;;;;2.02;1.05;;;;;;;29.01;61.18;101258.94;1639401;87;21151;-83
2022/07/05 06:28:05;;;;;;;4.12;1.42;;;;;;;29.08;60.76;101258.78;1650597;86;21123;-83
2022/07/05 06:30:35;;;;;;;1.50;1.20;;;;;;;29.17;60.22;101257.98;1640126;86;20901;-83
2022/07/05 06:33:02;;;;;;;8.28;1.80;;;;;;;29.22;59.50;101267.27;1640556;87;21100;-83
2022/07/05 06:35:28;;;;;;;;;;;;;;;29.21;58.95;101264.73;1642616;87;21127;-83
2022/07/05 06:38:05;;;;;;;3.20;1.47;;;;;;;28.97;58.17;101265.00;1643819;85;20118;-83
2022/07/05 06:40:35;;;;;;;2.37;1.40;;;;;;;28.78;58.31;101268.78;1663287;85;21052;-83
2022/07/05 06:43:10;;;;;;;2.15;1.50;;;;;;;28.64;58.41;101263.26;1635390;87;21041;-83
2022/07/05 06:45:36;;;;;;;2.75;1.50;;;;;;;28.57;57.93;101266.94;1635558;87;21053;-83
2022/07/05 06:48:09;;;;;;;1.37;1.10;;;;;;;28.56;57.65;101272.38;1649447;86;21011;-83
2022/07/05 06:50:48;;;;;;;3.05;1.45;;;;;;;28.62;57.37;101267.37;1635557;84;21119;-83
2022/07/05 06:53:14;;;;;;;3.15;1.47;;;;;;;28.82;56.89;101263.60;1635702;86;21059;-83
2022/07/05 06:55:44;;;;;;;6.45;1.62;;;;;;;29.14;56.44;101260.91;1649768;86;21127;-83
2022/07/05 06:58:08;;;;;;;4.80;1.40;;;;;;;29.49;56.06;101259.29;1663816;85;20925;-83
2022/07/05 07:00:35;;;;;;;3.98;1.12;;;;;;;29.86;55.39;101265.78;1643044;85;20936;-83
2022/07/05 07:03:01;;;;;;;2.20;1.27;;;;;;;30.16;55.05;101264.08;1680501;84;20909;-83
2022/07/05 07:05:28;;;;;;;4.15;1.20;;;;;;;30.57;54.73;101259.10;1662640;86;20897;-83
2022/07/05 07:10:44;;;;;;;2.00;1.45;;;;;;;31.21;53.58;101254.03;1648354;86;21078;-83
2022/07/05 07:13:17;;;;;;;2.25;1.00;;;;;;;31.50;53.04;101266.02;1662119;85;21051;-83
2022/07/05 07:15:43;;;;;;;3.67;1.20;;;;;;;31.60;52.04;101264.17;1620950;88;21081;-83
2022/07/05 07:18:09;;;;;;;4.03;1.10;;;;;;;31.89;52.30;101264.08;1610244;87;21081;-83
2022/07/05 07:20:36;;;;;;;2.05;1.00;;;;;;;31.96;51.46;101260.81;1613731;88;21085;-83
2022/07/05 07:23:02;;;;;;;2.20;0.95;;;;;;;31.63;49.64;101256.35;1613889;87;21077;-83
2022/07/05 07:25:29;;;;;;;1.95;1.15;;;;;;;31.24;50.03;101259.59;1602853;88;21133;-83
2022/07/05 07:27:56;;;;;;;2.72;1.10;;;;;;;31.23;50.05;101244.05;1606279;87;21339;-83
2022/07/05 07:30:26;;;;;;;4.53;1.17;;;;;;;31.42;49.23;101259.20;1596029;88;21520;-83
2022/07/05 07:32:52;;;;;;;1.57;1.00;;;;;;;31.49;48.43;101262.99;1588538;90;21096;-83
2022/07/05 07:35:32;;;;;;;1.10;0.98;;;;;;;31.57;48.55;101252.42;1610177;88;21097;-83
2022/07/05 07:37:58;;;;;;;0.78;0.72;;;;;;;31.90;48.20;101254.22;1614190;88;21132;-83
2022/07/05 07:40:25;;;;;;;1.57;0.90;;;;;;;32.18;47.82;101252.41;1598477;88;21155;-83
2022/07/05 07:42:53;;;;;;;2.05;1.00;;;;;;;32.48;47.31;101253.92;1599414;88;21070;-83
2022/07/05 07:45:19;;;;;;;1.10;0.60;;;;;;;32.72;46.80;101246.14;1588714;90;21096;-83
2022/07/05 07:47:45;;;;;;;0.80;0.75;;;;;;;32.94;46.13;101246.17;1588634;89;21421;-83
2022/07/05 07:50:11;;;;;;;2.47;0.98;;;;;;;33.09;45.62;101232.56;1595428;88;21359;-83
2022/07/05 07:52:38;;;;;;;1.00;0.60;;;;;;;33.22;45.20;101238.38;1588368;88;21076;-83
2022/07/05 07:55:05;;;;;;;2.55;0.75;;;;;;;33.41;44.84;101233.80;1588572;90;21140;-83
2022/07/05 07:57:33;;;;;;;0.80;0.60;;;;;;;33.52;44.27;101234.89;1590831;88;21072;-83
2022/07/05 07:59:59;;;;;;;1.98;0.70;;;;;;;33.74;43.71;101231.66;1615173;88;21018;-83
2022/07/05 08:02:25;;;;;;;3.27;0.95;;;;;;;33.99;43.02;101229.09;1614231;88;21148;-83
2022/07/05 08:04:51;;;;;;;1.60;0.90;;;;;;;34.25;42.72;101233.89;1591795;87;21144;-83
2022/07/05 08:07:18;;;;;;;4.05;0.80;;;;;;;34.53;42.33;101223.72;1595604;88;21116;-83
2022/07/05 08:09:44;;;;;;;2.25;0.93;;;;;;;34.62;41.74;101221.88;1588501;88;21108;-83
2022/07/05 08:12:11;;;;;;;;;;;;;;;34.08;41.21;101229.47;1618666;88;21102;-83
2022/07/05 08:14:37;;;;;;;1.22;1.10;;;;;;;33.32;41.06;101226.70;1621321;88;20330;-83
2022/07/05 08:17:07;;;;;;;3.92;1.00;;;;;;;32.55;41.32;101226.39;1608189;88;21104;-82
2022/07/05 08:22:19;;;;;;;1.10;0.70;;;;;;;31.10;40.77;101233.30;1588821;88;21116;-82
2022/07/05 08:24:46;;;;;;;1.90;0.90;;;;;;;30.44;40.61;101227.30;1588728;88;21080;-82
2022/07/05 08:27:15;;;;;;;0.75;0.72;;;;;;;30.00;40.32;101238.44;1599191;87;21085;-82
2022/07/05 08:29:42;;;;;;;0.90;0.57;;;;;;;29.85;40.17;101237.43;1602176;87;21128;-82
2022/07/05 08:32:09;;;;;;;2.83;0.70;;;;;;;29.52;39.92;101231.05;1603156;88;21372;-82
2022/07/05 08:34:39;;;;;;;0.93;0.70;;;;;;;29.06;39.51;101229.61;1613053;88;21065;-82
2022/07/05 08:37:06;;;;;;;1.17;0.60;;;;;;;28.83;39.45;101237.34;1613908;88;21088;-82
2022/07/05 08:39:32;;;;;;;0.68;0.60;;;;;;;29.14;39.12;101232.45;1605009;87;21139;-82
2022/07/05 08:42:00;;;;;;;1.05;0.55;;;;;;;29.48;39.19;101232.28;1609396;88;21080;-82
2022/07/05 08:44:29;;;;;;;1.10;0.62;;;;;;;29.78;38.74;101233.61;1613817;88;21099;-82
2022/07/05 08:46:57;;;;;;;1.67;0.95;;;;;;;29.98;38.09;101232.72;1605166;87;21061;-82
2022/07/05 08:49:28;;;;;;;0.72;0.70;;;;;;;30.07;38.00;101230.25;1614053;87;21133;-82
2022/07/05 08:51:56;;;;;;;1.75;0.80;;;;;;;29.83;37.96;101234.54;1622412;87;21124;-82
2022/07/05 08:54:24;;;;;;;0.82;0.68;;;;;;;29.50;37.85;101229.00;1605889;88;21068;-82
2022/07/05 08:56:50;;;;;;;7.15;0.80;;;;;;;29.25;37.68;101232.39;1597769;87;20946;-82
2022/07/05 08:59:17;;;;;;;0.98;0.70;;;;;;;28.89;37.44;101230.17;1609710;87;20941;-82
2022/07/05 09:01:48;;;;;;;0.68;0.68;;;;;;;28.51;37.60;101234.17;1608913;87;20902;-82
2022/07/05 09:04:17;;;;;;;1.35;0.62;;;;;;;28.26;37.61;101232.64;1618177;87;20932;-82
2022/07/05 09:06:47;;;;;;;1.32;0.90;;;;;;;28.18;37.67;101232.87;1620070;87;20890;-82
2022/07/05 09:09:17;;;;;;;4.00;1.20;;;;;;;28.18;37.60;101231.53;1620724;86;21467;-82
2022/07/05 09:11:46;;;;;;;2.15;0.80;;;;;;;28.24;37.51;101235.91;1610986;87;20985;-82
2022/07/05 09:14:25;;;;;;;2.85;0.70;;;;;;;28.25;37.36;101229.63;1601546;86;20943;-82
2022/07/05 09:16:51;;;;;;;1.07;0.90;;;;;;;28.19;37.25;101224.77;1640943;87;20948;-82
2022/07/05 09:19:18;;;;;;;0.72;0.70;;;;;;;28.03;36.70;101219.02;1657798;85;20976;-82
2022/07/05 09:21:44;;;;;;;2.90;0.70;;;;;;;27.91;37.08;101223.97;1665090;85;21390;-82
2022/07/05 09:24:12;;;;;;;2.65;0.70;;;;;;;27.89;37.06;101224.09;1659850;86;21258;-82
2022/07/05 09:26:48;;;;;;;1.15;0.68;;;;;;;27.86;37.01;101219.02;1636665;86;20929;-82
2022/07/05 09:29:18;;;;;;;0.85;0.85;;;;;;;27.83;36.96;101217.92;1636909;86;20932;-82
2022/07/05 09:31:49;;;;;;;0.78;0.70;;;;;;;27.78;36.98;101220.09;1636324;87;21095;-82
2022/07/05 09:34:19;;;;;;;1.52;0.65;;;;;;;27.68;36.89;101221.30;1635976;86;21091;-82
2022/07/05 09:37:03;;;;;;;1.25;0.72;;;;;;;27.59;36.69;101220.69;1635651;87;20913;-82
2022/07/05 09:39:37;;;;;;;2.05;0.60;;;;;;;27.48;36.59;101217.17;1636771;86;20905;-82
2022/07/05 09:42:20;;;;;;;3.40;0.72;;;;;;;27.46;36.76;101219.09;1645303;86;21020;-82
2022/07/05 09:44:57;;;;;;;3.33;0.50;;;;;;;27.51;36.58;101217.78;1663809;86;20965;-82
2022/07/05 09:47:26;;;;;;;1.90;0.88;;;;;;;27.46;36.60;101218.61;1663585;86;20970;-82
2022/07/05 09:50:03;;;;;;;0.98;0.70;;;;;;;27.41;36.51;101219.94;1657154;86;21504;-82
2022/07/05 09:52:37;;;;;;;1.40;0.80;;;;;;;27.35;36.51;101219.92;1636705;86;20913;-82
2022/07/05 09:55:18;;;;;;;5.37;1.22;;;;;;;27.27;36.54;101210.37;1637294;86;20932;-82
2022/07/05 09:57:50;;;;;;;2.37;0.72;;;;;;;27.20;36.42;101211.31;1636774;86;20924;-81
2022/07/05 10:00:22;;;;;;;1.47;0.62;;;;;;;27.09;36.54;101207.78;1636926;86;20926;-81
2022/07/05 10:02:53;;;;;;;3.58;0.80;;;;;;;27.04;36.54;101216.94;1641601;86;20948;-81
2022/07/05 10:05:24;;;;;;;1.75;0.80;;;;;;;27.05;36.50;101212.48;1630019;87;20947;-81
2022/07/05 10:07:54;;;;;;;2.95;0.80;;;;;;;26.97;36.29;101213.56;1668366;86;20968;-81
2022/07/05 10:10:30;;;;;;;2.47;0.68;;;;;;;26.84;36.32;101209.63;1668278;85;20917;-81
2022/07/05 10:12:58;;;;;;;0.85;0.68;;;;;;;26.69;36.30;101212.93;1658624;85;21060;-81
2022/07/05 10:15:30;;;;;;;0.80;0.60;;;;;;;26.58;36.37;101208.89;1645590;86;21028;-81
2022/07/05 10:18:08;;;;;;;2.83;0.75;;;;;;;26.57;36.31;101211.18;1661059;85;20940;-81
2022/07/05 10:20:44;;;;;;;2.98;0.90;;;;;;;26.59;36.31;101213.24;1645051;86;20893;-81
2022/07/05 10:23:12;;;;;;;;;;;;;;;26.69;36.40;101208.95;1666301;86;20920;-81
2022/07/05 10:25:42;;;;;;;1.10;0.60;;;;;;;26.78;36.37;101206.09;1622058;87;20111;-81
2022/07/05 10:28:10;;;;;;;1.25;0.50;;;;;;;26.83;36.41;101209.25;1596778;88;20949;-81
2022/07/05 10:30:37;;;;;;;1.45;0.70;;;;;;;26.87;36.28;101214.70;1605794;88;20949;-81
2022/07/05 10:33:06;;;;;;;1.37;0.70;;;;;;;26.86;36.32;101213.48;1641225;87;21252;-81
2022/07/05 10:35:33;;;;;;;0.82;0.70;;;;;;;26.88;36.41;101208.43;1643732;85;20892;-81
2022/07/05 10:38:01;;;;;;;1.07;0.60;;;;;;;26.91;36.43;101212.66;1645331;85;20932;-81
2022/07/05 10:40:31;;;;;;;4.45;1.00;;;;;;;26.88;36.45;101205.78;1646246;85;20936;-81
2022/07/05 10:43:01;;;;;;;0.60;0.60;;;;;;;26.86;36.48;101206.37;1640230;87;21507;-81
2022/07/05 10:45:33;;;;;;;1.32;0.85;;;;;;;26.86;36.46;101205.52;1637660;86;21417;-81
2022/07/05 10:48:19;;;;;;;1.77;0.82;;;;;;;26.85;36.46;101200.70;1636632;87;20940;-82
2022/07/05 10:51:06;;;;;;;2.67;0.82;;;;;;;26.83;36.53;101199.12;1638240;86;20932;-81
2022/07/05 10:53:41;;;;;;;0.82;0.68;;;;;;;26.85;36.70;101195.39;1635393;86;20984;-81
2022/07/05 10:56:11;;;;;;;0.85;0.70;;;;;;;26.91;36.66;101196.26;1637947;86;20936;-81
2022/07/05 10:58:42;;;;;;;0.98;0.68;;;;;;;27.00;36.62;101202.23;1636946;86;20921;-81
2022/07/05 11:01:28;;;;;;;0.90;0.62;;;;;;;27.02;36.45;101198.14;1638319;86;20924;-81
2022/07/05 11:04:14;;;;;;;0.98;0.70;;;;;;;26.98;36.47;101190.89;1649110;86;20919;-81
2022/07/05 11:06:46;;;;;;;0.98;0.78;;;;;;;26.99;36.42;101188.59;1663666;86;20961;-81
2022/07/05 11:09:18;;;;;;;0.62;0.60;;;;;;;26.96;36.34;101184.84;1659413;86;20945;-81
2022/07/05 11:11:54;;;;;;;1.75;0.72;;;;;;;26.90;36.44;101177.80;1648764;86;21011;-81
2022/07/05 11:14:25;;;;;;;0.95;0.70;;;;;;;26.82;36.38;101177.52;1664115;86;20933;-81
2022/07/05 11:17:19;;;;;;;1.45;0.80;;;;;;;26.83;36.37;101179.22;1622564;87;21034;-81
2022/07/05 11:20:11;;;;;;;0.70;0.70;;;;;;;26.85;36.34;101171.98;1612688;87;21041;-81
2022/07/05 11:22:41;;;;;;;1.45;0.60;;;;;;;26.91;36.37;101172.85;1613774;87;21064;-81
2022/07/05 11:25:11;;;;;;;1.22;0.60;;;;;;;26.96;36.27;101178.69;1610707;86;21073;-81
2022/07/05 11:27:59;;;;;;;0.60;0.50;;;;;;;26.97;36.23;101176.41;1633039;87;20950;-81
2022/07/05 11:30:25;;;;;;;1.15;0.70;;;;;;;26.96;36.10;101176.88;1641844;86;20968;-81
2022/07/05 11:32:51;;;;;;;1.02;0.50;;;;;;;26.94;36.11;101166.83;1644041;87;20964;-81
2022/07/05 11:35:20;;;;;;;1.67;0.80;;;;;;;26.96;36.11;101170.73;1647968;84;21087;-81
2022/07/05 11:38:05;;;;;;;1.37;0.80;;;;;;;26.97;36.07;101169.28;1669101;84;21035;-81
2022/07/05 11:40:37;;;;;;;1.25;0.62;;;;;;;26.97;35.91;101168.44;1651289;86;21579;-81